»·PEaware :: JBU180 KBFL-KSFO

JBU180 :: KBFL-KSFO

FLIGHT INFORMATION

Flight Status: Arrived
Operator:
JetBlue Airways
More flights by this operator :: More flights under this callsign
Pilot: Etienne B. (28927)
Aircraft: AIRBUS A320
(A320)
More flights by this aircraft type
Origin: KBFL Meadows
United States
Destination: KSFO San Francisco Intl
United States
More flights between these airports :: More routes between these airports
Route: +MARIC4 MARIC MAKRS SERFR SERFR4
File this flight plan on PilotEdge
Remarks: RMK / SIMBRIEF
Altitude:
(Current/Filed)
34,000ft
Speed:
(Current/Filed)
455kts
Departed: 03-May-20 05:15 PM
Arrived: 03-May-20 06:03 PM
Distance/Time
Traveled:
207nm/0:48
Distance/Time
To Go:
Arrived

Flight Plot

Page will automatically refresh every two minutes.

Flight plan parsing failed; only flown route is shown


Map Options




Map Legend


Flown Route
Filed Route
Departure Airport
Arrival Airport
Navaid (VOR, NDB)
Fix

Horizontal Profiles

Position Reports

Time Latitude Longitude Heading Altitude Ground
Speed
03-May-20 16:49 35.437490 -119.055163 104 506ft 0kts
03-May-20 16:50 35.437490 -119.055163 104 506ft 0kts
03-May-20 16:51 35.437490 -119.055163 104 506ft 0kts
03-May-20 16:52 35.437490 -119.055163 104 506ft 0kts
03-May-20 16:53 35.437490 -119.055163 104 506ft 0kts
03-May-20 16:54 35.437490 -119.055163 104 506ft 0kts
03-May-20 16:55 35.437490 -119.055163 104 506ft 0kts
03-May-20 16:56 35.437490 -119.055163 104 506ft 0kts
03-May-20 16:57 35.437490 -119.055163 104 506ft 0kts
03-May-20 16:58 35.437490 -119.055163 104 506ft 0kts
03-May-20 16:59 35.437490 -119.055163 104 506ft 0kts
03-May-20 17:00 35.437490 -119.055163 104 506ft 0kts
03-May-20 17:01 35.437490 -119.055163 104 506ft 0kts
03-May-20 17:02 35.437490 -119.055163 104 506ft 0kts
03-May-20 17:03 35.437490 -119.055164 104 506ft 0kts
03-May-20 17:04 35.437540 -119.055422 103 506ft 2kts
03-May-20 17:05 35.437666 -119.056081 101 505ft 0kts
03-May-20 17:06 35.437689 -119.056129 140 505ft 0kts
03-May-20 17:07 35.437179 -119.055635 142 504ft 10kts
03-May-20 17:08 35.436657 -119.055238 169 504ft 0kts
03-May-20 17:09 35.435124 -119.055360 154 498ft 9kts
03-May-20 17:10 35.433448 -119.053431 134 498ft 11kts
03-May-20 17:11 35.430086 -119.049363 135 496ft 22kts
03-May-20 17:12 35.426000 -119.044813 215 486ft 0kts
03-May-20 17:13 35.425777 -119.045060 222 485ft 4kts
03-May-20 17:14 35.429864 -119.051381 315 489ft 108kts
03-May-20 17:15 35.452114 -119.096136 261 2518ft 179kts
03-May-20 17:16 35.419273 -119.144808 208 5013ft 215kts
03-May-20 17:17 35.362763 -119.182328 213 6978ft 266kts
03-May-20 17:18 35.292797 -119.231037 212 9294ft 302kts
03-May-20 17:19 35.256937 -119.313026 286 11596ft 307kts
03-May-20 17:20 35.297647 -119.412707 298 12984ft 335kts
03-May-20 17:21 35.340513 -119.514914 298 14638ft 342kts
03-May-20 17:22 35.384002 -119.619149 298 16876ft 345kts
03-May-20 17:23 35.427812 -119.724474 297 18868ft 350kts
03-May-20 17:24 35.472207 -119.831548 297 20684ft 354kts
03-May-20 17:25 35.516977 -119.939878 296 22291ft 359kts
03-May-20 17:26 35.562336 -120.049998 296 23747ft 364kts
03-May-20 17:27 35.607993 -120.161221 295 25076ft 368kts
03-May-20 17:28 35.654188 -120.274141 295 26281ft 372kts
03-May-20 17:29 35.699939 -120.388947 294 27373ft 375kts
03-May-20 17:30 35.744672 -120.505845 293 28356ft 379kts
03-May-20 17:31 35.789593 -120.623679 293 29241ft 382kts
03-May-20 17:32 35.834711 -120.742475 292 30091ft 386kts
03-May-20 17:33 35.879704 -120.861398 291 31360ft 376kts
03-May-20 17:34 35.922750 -120.975646 291 32959ft 358kts
03-May-20 17:35 35.963373 -121.083929 290 34121ft 350kts
03-May-20 17:36 36.005371 -121.195692 290 34118ft 368kts
03-May-20 17:37 36.047222 -121.307948 290 32922ft 357kts
03-May-20 17:38 36.110684 -121.397300 319 30455ft 342kts
03-May-20 17:39 36.185767 -121.456113 318 29031ft 311kts
03-May-20 17:40 36.263974 -121.517477 320 27476ft 362kts
03-May-20 17:41 36.349925 -121.584769 321 25696ft 365kts
03-May-20 17:42 36.433252 -121.650285 321 24183ft 344kts
03-May-20 17:43 36.512709 -121.712926 321 22349ft 336kts
03-May-20 17:44 36.589954 -121.773994 322 20700ft 323kts
03-May-20 17:45 36.664430 -121.833018 322 19124ft 311kts
03-May-20 17:46 36.735916 -121.889457 328 17535ft 303kts
03-May-20 17:47 36.817292 -121.915290 342 16050ft 299kts
03-May-20 17:48 36.897311 -121.937684 342 14600ft 290kts
03-May-20 17:49 36.974280 -121.961814 338 13189ft 280kts
03-May-20 17:50 37.047640 -121.990464 338 11827ft 274kts
03-May-20 17:51 37.120471 -122.018925 338 10487ft 277kts
03-May-20 17:52 37.193409 -122.047452 339 9218ft 271kts
03-May-20 17:53 37.264126 -122.075174 339 8074ft 259kts
03-May-20 17:54 37.332043 -122.101917 339 6856ft 256kts
03-May-20 17:55 37.400163 -122.127783 341 5637ft 251kts
03-May-20 17:56 37.463946 -122.149463 341 4888ft 232kts
03-May-20 17:57 37.525582 -122.171259 327 3809ft 224kts
03-May-20 17:58 37.558126 -122.232502 296 2107ft 204kts
03-May-20 17:59 37.581235 -122.286262 297 1141ft 149kts
03-May-20 18:00 37.598247 -122.325814 294 591ft 125kts
03-May-20 18:01 37.614261 -122.364372 293 13ft 102kts
03-May-20 18:02 37.618923 -122.376122 281 25ft 26kts
03-May-20 18:03 37.618978 -122.377257 267 27ft 2kts
03-May-20 18:04 37.618569 -122.379387 211 31ft 12kts
03-May-20 18:05 37.617852 -122.380672 258 32ft 0kts

Navigation Log

Ident Type
Flight plan parsing failed, navigation log unavailable